Terminal Aerodrome Forecast
Issued by NWS

Home | Current Version | Previous Version | Text Only | Print | Product List | Glossary On
Versions: 1 2 3 4 5 6 7 8 9 10 11 12 13 14
000
FTUS45 KTFX 012300 RRA
TAFGTF
TAF
KGTF 012341Z 0200/0224 24013G23KT P6SM SCT080
     FM020200 22011KT P6SM SCT090
     FM020900 29015KT P6SM SCT050 BKN080
     FM021100 33010KT P6SM -SHRASN SCT020 OVC035
      TEMPO 0212/0216 35015G25KT 3SM -RASN BR BKN015
     FM021800 32010KT P6SM VCSH SCT030 BKN050=

USA.gov is the U.S. government's official web portal to all federal, state and local government web resources and services.